sensor_id;sensor_type;location;lat;lon;timestamp;P1;durP1;ratioP1;P2;durP2;ratioP2
51883;SDS011;37915;53.254;6.598;2023-06-14T00:00:40;5.00;;;2.38;;
51883;SDS011;37915;53.254;6.598;2023-06-14T00:03:09;3.65;;;1.90;;
51883;SDS011;37915;53.254;6.598;2023-06-14T00:05:37;5.70;;;1.80;;
51883;SDS011;37915;53.254;6.598;2023-06-14T00:08:10;5.82;;;2.10;;
51883;SDS011;37915;53.254;6.598;2023-06-14T00:10:36;4.38;;;2.17;;
51883;SDS011;37915;53.254;6.598;2023-06-14T00:13:02;4.15;;;2.20;;
51883;SDS011;37915;53.254;6.598;2023-06-14T00:15:32;4.57;;;1.95;;
51883;SDS011;37915;53.254;6.598;2023-06-14T00:17:58;3.63;;;1.75;;
51883;SDS011;37915;53.254;6.598;2023-06-14T00:20:29;6.32;;;1.90;;
51883;SDS011;37915;53.254;6.598;2023-06-14T00:22:57;4.57;;;2.20;;
51883;SDS011;37915;53.254;6.598;2023-06-14T00:25:24;4.60;;;1.88;;
51883;SDS011;37915;53.254;6.598;2023-06-14T00:27:53;5.28;;;2.13;;
51883;SDS011;37915;53.254;6.598;2023-06-14T00:30:22;3.70;;;1.70;;
51883;SDS011;37915;53.254;6.598;2023-06-14T00:32:48;3.78;;;1.85;;
51883;SDS011;37915;53.254;6.598;2023-06-14T00:35:15;5.03;;;2.00;;
51883;SDS011;37915;53.254;6.598;2023-06-14T00:37:40;4.57;;;2.10;;
51883;SDS011;37915;53.254;6.598;2023-06-14T00:40:06;4.53;;;2.10;;
51883;SDS011;37915;53.254;6.598;2023-06-14T00:42:32;4.45;;;2.17;;
51883;SDS011;37915;53.254;6.598;2023-06-14T00:44:59;3.95;;;1.83;;
51883;SDS011;37915;53.254;6.598;2023-06-14T00:47:25;5.13;;;1.73;;
51883;SDS011;37915;53.254;6.598;2023-06-14T00:49:51;5.78;;;2.15;;
51883;SDS011;37915;53.254;6.598;2023-06-14T00:52:20;4.63;;;2.17;;
51883;SDS011;37915;53.254;6.598;2023-06-14T00:54:46;5.80;;;2.28;;
51883;SDS011;37915;53.254;6.598;2023-06-14T00:57:12;3.22;;;1.50;;
51883;SDS011;37915;53.254;6.598;2023-06-14T00:59:41;4.68;;;1.83;;
51883;SDS011;37915;53.254;6.598;2023-06-14T01:02:09;4.80;;;1.92;;
51883;SDS011;37915;53.254;6.598;2023-06-14T01:04:35;7.07;;;2.17;;
51883;SDS011;37915;53.254;6.598;2023-06-14T01:07:45;4.68;;;1.90;;
51883;SDS011;37915;53.254;6.598;2023-06-14T01:12:55;3.33;;;1.95;;
51883;SDS011;37915;53.254;6.598;2023-06-14T01:15:32;3.78;;;2.08;;
51883;SDS011;37915;53.254;6.598;2023-06-14T01:17:59;5.50;;;2.05;;
51883;SDS011;37915;53.254;6.598;2023-06-14T01:20:28;3.17;;;1.63;;
51883;SDS011;37915;53.254;6.598;2023-06-14T01:22:55;8.35;;;2.00;;
51883;SDS011;37915;53.254;6.598;2023-06-14T01:25:22;3.63;;;1.90;;
51883;SDS011;37915;53.254;6.598;2023-06-14T01:27:49;4.18;;;1.80;;
51883;SDS011;37915;53.254;6.598;2023-06-14T01:30:16;4.53;;;1.85;;
51883;SDS011;37915;53.254;6.598;2023-06-14T01:32:43;3.65;;;1.70;;
51883;SDS011;37915;53.254;6.598;2023-06-14T01:35:10;3.95;;;1.63;;
51883;SDS011;37915;53.254;6.598;2023-06-14T01:37:36;5.32;;;1.80;;
51883;SDS011;37915;53.254;6.598;2023-06-14T01:40:03;3.70;;;1.77;;
51883;SDS011;37915;53.254;6.598;2023-06-14T01:42:31;6.30;;;2.25;;
51883;SDS011;37915;53.254;6.598;2023-06-14T01:45:02;3.80;;;1.92;;
51883;SDS011;37915;53.254;6.598;2023-06-14T01:47:30;5.93;;;1.90;;
51883;SDS011;37915;53.254;6.598;2023-06-14T01:49:57;6.15;;;2.03;;
51883;SDS011;37915;53.254;6.598;2023-06-14T01:52:22;4.15;;;1.80;;
51883;SDS011;37915;53.254;6.598;2023-06-14T01:54:49;4.88;;;2.20;;
51883;SDS011;37915;53.254;6.598;2023-06-14T01:57:16;6.13;;;2.13;;
51883;SDS011;37915;53.254;6.598;2023-06-14T01:59:42;7.10;;;2.22;;
51883;SDS011;37915;53.254;6.598;2023-06-14T02:02:08;5.63;;;1.70;;
51883;SDS011;37915;53.254;6.598;2023-06-14T02:04:33;5.82;;;2.03;;
51883;SDS011;37915;53.254;6.598;2023-06-14T02:06:59;3.85;;;2.20;;
51883;SDS011;37915;53.254;6.598;2023-06-14T02:09:25;5.90;;;2.17;;
51883;SDS011;37915;53.254;6.598;2023-06-14T02:11:51;6.03;;;2.15;;
51883;SDS011;37915;53.254;6.598;2023-06-14T02:14:16;6.13;;;2.72;;
51883;SDS011;37915;53.254;6.598;2023-06-14T02:16:43;4.57;;;2.10;;
51883;SDS011;37915;53.254;6.598;2023-06-14T02:19:17;8.48;;;2.40;;
51883;SDS011;37915;53.254;6.598;2023-06-14T02:21:44;5.75;;;2.25;;
51883;SDS011;37915;53.254;6.598;2023-06-14T02:24:10;4.00;;;2.13;;
51883;SDS011;37915;53.254;6.598;2023-06-14T02:26:36;6.55;;;2.30;;
51883;SDS011;37915;53.254;6.598;2023-06-14T02:29:08;5.07;;;2.30;;
51883;SDS011;37915;53.254;6.598;2023-06-14T02:31:36;5.03;;;2.13;;
51883;SDS011;37915;53.254;6.598;2023-06-14T02:34:02;8.43;;;2.30;;
51883;SDS011;37915;53.254;6.598;2023-06-14T02:36:27;4.22;;;2.55;;
51883;SDS011;37915;53.254;6.598;2023-06-14T02:38:55;5.32;;;2.65;;
51883;SDS011;37915;53.254;6.598;2023-06-14T02:41:24;3.78;;;1.83;;
51883;SDS011;37915;53.254;6.598;2023-06-14T02:43:51;5.47;;;2.20;;
51883;SDS011;37915;53.254;6.598;2023-06-14T02:46:17;5.60;;;2.17;;
51883;SDS011;37915;53.254;6.598;2023-06-14T02:48:43;4.30;;;2.35;;
51883;SDS011;37915;53.254;6.598;2023-06-14T02:51:09;5.55;;;2.17;;
51883;SDS011;37915;53.254;6.598;2023-06-14T02:53:35;5.57;;;2.33;;
51883;SDS011;37915;53.254;6.598;2023-06-14T02:56:01;4.05;;;2.20;;
51883;SDS011;37915;53.254;6.598;2023-06-14T02:58:29;4.82;;;2.40;;
51883;SDS011;37915;53.254;6.598;2023-06-14T03:00:55;4.57;;;2.30;;
51883;SDS011;37915;53.254;6.598;2023-06-14T03:03:21;6.53;;;2.22;;
51883;SDS011;37915;53.254;6.598;2023-06-14T03:05:49;11.50;;;2.67;;
51883;SDS011;37915;53.254;6.598;2023-06-14T03:08:16;8.00;;;2.45;;
51883;SDS011;37915;53.254;6.598;2023-06-14T03:10:47;5.78;;;2.53;;
51883;SDS011;37915;53.254;6.598;2023-06-14T03:13:13;5.53;;;2.28;;
51883;SDS011;37915;53.254;6.598;2023-06-14T03:15:41;5.55;;;2.90;;
51883;SDS011;37915;53.254;6.598;2023-06-14T03:18:07;4.15;;;2.15;;
51883;SDS011;37915;53.254;6.598;2023-06-14T03:20:34;7.78;;;2.35;;
51883;SDS011;37915;53.254;6.598;2023-06-14T03:23:01;4.78;;;2.00;;
51883;SDS011;37915;53.254;6.598;2023-06-14T03:25:28;5.00;;;2.47;;
51883;SDS011;37915;53.254;6.598;2023-06-14T03:27:57;7.25;;;2.47;;
51883;SDS011;37915;53.254;6.598;2023-06-14T03:30:23;5.20;;;2.30;;
51883;SDS011;37915;53.254;6.598;2023-06-14T03:32:49;5.32;;;2.65;;
51883;SDS011;37915;53.254;6.598;2023-06-14T03:35:17;5.65;;;2.58;;
51883;SDS011;37915;53.254;6.598;2023-06-14T03:37:43;5.35;;;2.13;;
51883;SDS011;37915;53.254;6.598;2023-06-14T03:40:10;7.82;;;2.75;;
51883;SDS011;37915;53.254;6.598;2023-06-14T03:42:36;4.93;;;2.55;;
51883;SDS011;37915;53.254;6.598;2023-06-14T03:45:02;5.70;;;2.78;;
51883;SDS011;37915;53.254;6.598;2023-06-14T03:47:28;4.90;;;2.75;;
51883;SDS011;37915;53.254;6.598;2023-06-14T03:49:54;4.78;;;2.97;;
51883;SDS011;37915;53.254;6.598;2023-06-14T03:52:20;8.63;;;2.60;;
51883;SDS011;37915;53.254;6.598;2023-06-14T03:54:47;6.25;;;2.75;;
51883;SDS011;37915;53.254;6.598;2023-06-14T03:57:13;7.03;;;3.00;;
51883;SDS011;37915;53.254;6.598;2023-06-14T03:59:38;5.60;;;2.50;;
51883;SDS011;37915;53.254;6.598;2023-06-14T04:02:04;5.82;;;2.30;;
51883;SDS011;37915;53.254;6.598;2023-06-14T04:04:30;5.05;;;2.60;;
51883;SDS011;37915;53.254;6.598;2023-06-14T04:06:56;5.82;;;2.47;;
51883;SDS011;37915;53.254;6.598;2023-06-14T04:09:24;5.60;;;3.08;;
51883;SDS011;37915;53.254;6.598;2023-06-14T04:11:53;6.55;;;3.10;;
51883;SDS011;37915;53.254;6.598;2023-06-14T04:14:19;6.60;;;2.90;;
51883;SDS011;37915;53.254;6.598;2023-06-14T04:16:46;5.93;;;2.97;;
51883;SDS011;37915;53.254;6.598;2023-06-14T04:19:12;6.40;;;2.75;;
51883;SDS011;37915;53.254;6.598;2023-06-14T04:21:38;5.68;;;3.03;;
51883;SDS011;37915;53.254;6.598;2023-06-14T04:24:04;5.53;;;2.75;;
51883;SDS011;37915;53.254;6.598;2023-06-14T04:26:30;6.20;;;2.55;;
51883;SDS011;37915;53.254;6.598;2023-06-14T04:28:58;5.70;;;3.40;;
51883;SDS011;37915;53.254;6.598;2023-06-14T04:31:30;6.55;;;2.70;;
51883;SDS011;37915;53.254;6.598;2023-06-14T04:33:58;7.97;;;3.08;;
51883;SDS011;37915;53.254;6.598;2023-06-14T04:36:24;9.13;;;3.58;;
51883;SDS011;37915;53.254;6.598;2023-06-14T04:38:51;7.28;;;3.03;;
51883;SDS011;37915;53.254;6.598;2023-06-14T04:41:20;4.97;;;2.63;;
51883;SDS011;37915;53.254;6.598;2023-06-14T04:43:48;8.45;;;3.10;;
51883;SDS011;37915;53.254;6.598;2023-06-14T04:46:14;6.03;;;3.10;;
51883;SDS011;37915;53.254;6.598;2023-06-14T04:48:40;5.65;;;2.90;;
51883;SDS011;37915;53.254;6.598;2023-06-14T04:51:10;5.90;;;2.80;;
51883;SDS011;37915;53.254;6.598;2023-06-14T04:53:36;9.35;;;3.25;;
51883;SDS011;37915;53.254;6.598;2023-06-14T04:56:02;5.38;;;2.95;;
51883;SDS011;37915;53.254;6.598;2023-06-14T04:58:29;6.13;;;3.03;;
51883;SDS011;37915;53.254;6.598;2023-06-14T05:00:55;5.82;;;2.80;;
51883;SDS011;37915;53.254;6.598;2023-06-14T05:03:24;4.70;;;2.78;;
51883;SDS011;37915;53.254;6.598;2023-06-14T05:05:51;5.00;;;2.83;;
51883;SDS011;37915;53.254;6.598;2023-06-14T05:08:20;8.13;;;2.88;;
51883;SDS011;37915;53.254;6.598;2023-06-14T05:10:48;6.95;;;3.28;;
51883;SDS011;37915;53.254;6.598;2023-06-14T05:13:14;5.00;;;2.83;;
51883;SDS011;37915;53.254;6.598;2023-06-14T05:15:40;9.48;;;3.17;;
51883;SDS011;37915;53.254;6.598;2023-06-14T05:18:06;11.15;;;3.05;;
51883;SDS011;37915;53.254;6.598;2023-06-14T05:20:34;9.65;;;3.65;;
51883;SDS011;37915;53.254;6.598;2023-06-14T05:23:02;6.65;;;2.97;;
51883;SDS011;37915;53.254;6.598;2023-06-14T05:25:28;7.15;;;2.80;;
51883;SDS011;37915;53.254;6.598;2023-06-14T05:27:53;7.03;;;2.70;;
51883;SDS011;37915;53.254;6.598;2023-06-14T05:30:19;6.75;;;3.05;;
51883;SDS011;37915;53.254;6.598;2023-06-14T05:32:45;6.70;;;3.35;;
51883;SDS011;37915;53.254;6.598;2023-06-14T05:35:11;5.57;;;2.67;;
51883;SDS011;37915;53.254;6.598;2023-06-14T05:37:37;14.95;;;4.22;;
51883;SDS011;37915;53.254;6.598;2023-06-14T05:40:03;7.68;;;3.25;;
51883;SDS011;37915;53.254;6.598;2023-06-14T05:42:33;7.88;;;3.25;;
51883;SDS011;37915;53.254;6.598;2023-06-14T05:44:59;7.07;;;3.50;;
51883;SDS011;37915;53.254;6.598;2023-06-14T05:47:26;9.35;;;3.45;;
51883;SDS011;37915;53.254;6.598;2023-06-14T05:49:52;5.82;;;3.08;;
51883;SDS011;37915;53.254;6.598;2023-06-14T05:52:19;6.60;;;3.17;;
51883;SDS011;37915;53.254;6.598;2023-06-14T05:54:45;5.30;;;3.00;;
51883;SDS011;37915;53.254;6.598;2023-06-14T05:57:11;5.55;;;3.17;;
51883;SDS011;37915;53.254;6.598;2023-06-14T05:59:37;5.70;;;2.90;;
51883;SDS011;37915;53.254;6.598;2023-06-14T06:02:03;6.53;;;3.70;;
51883;SDS011;37915;53.254;6.598;2023-06-14T06:04:29;6.57;;;3.40;;
51883;SDS011;37915;53.254;6.598;2023-06-14T06:06:54;7.30;;;2.95;;
51883;SDS011;37915;53.254;6.598;2023-06-14T06:09:20;6.88;;;2.92;;
51883;SDS011;37915;53.254;6.598;2023-06-14T06:11:46;6.25;;;3.40;;
51883;SDS011;37915;53.254;6.598;2023-06-14T06:14:11;7.32;;;3.15;;
51883;SDS011;37915;53.254;6.598;2023-06-14T06:16:37;9.52;;;4.53;;
51883;SDS011;37915;53.254;6.598;2023-06-14T06:19:03;8.68;;;5.38;;
51883;SDS011;37915;53.254;6.598;2023-06-14T06:21:28;8.13;;;4.70;;
51883;SDS011;37915;53.254;6.598;2023-06-14T06:23:54;8.18;;;3.97;;
51883;SDS011;37915;53.254;6.598;2023-06-14T06:26:21;9.95;;;4.88;;
51883;SDS011;37915;53.254;6.598;2023-06-14T06:28:47;6.30;;;3.20;;
51883;SDS011;37915;53.254;6.598;2023-06-14T06:31:13;5.85;;;3.25;;
51883;SDS011;37915;53.254;6.598;2023-06-14T06:33:39;7.38;;;3.60;;
51883;SDS011;37915;53.254;6.598;2023-06-14T06:36:05;7.70;;;3.50;;
51883;SDS011;37915;53.254;6.598;2023-06-14T06:38:30;5.05;;;3.05;;
51883;SDS011;37915;53.254;6.598;2023-06-14T06:40:56;6.75;;;2.53;;
51883;SDS011;37915;53.254;6.598;2023-06-14T06:43:22;8.90;;;3.22;;
51883;SDS011;37915;53.254;6.598;2023-06-14T06:45:47;6.03;;;2.85;;
51883;SDS011;37915;53.254;6.598;2023-06-14T06:48:13;6.50;;;3.20;;
51883;SDS011;37915;53.254;6.598;2023-06-14T06:50:41;5.85;;;3.10;;
51883;SDS011;37915;53.254;6.598;2023-06-14T06:53:06;4.68;;;2.50;;
51883;SDS011;37915;53.254;6.598;2023-06-14T06:55:32;6.25;;;2.95;;
51883;SDS011;37915;53.254;6.598;2023-06-14T06:57:58;6.53;;;2.95;;
51883;SDS011;37915;53.254;6.598;2023-06-14T07:00:24;13.93;;;3.15;;
51883;SDS011;37915;53.254;6.598;2023-06-14T07:02:50;5.65;;;2.88;;
51883;SDS011;37915;53.254;6.598;2023-06-14T07:05:17;6.53;;;3.35;;
51883;SDS011;37915;53.254;6.598;2023-06-14T07:07:43;6.80;;;2.90;;
51883;SDS011;37915;53.254;6.598;2023-06-14T07:10:08;8.98;;;2.92;;
51883;SDS011;37915;53.254;6.598;2023-06-14T07:12:35;6.85;;;2.70;;
51883;SDS011;37915;53.254;6.598;2023-06-14T07:15:04;7.57;;;2.70;;
51883;SDS011;37915;53.254;6.598;2023-06-14T07:17:31;7.78;;;2.70;;
51883;SDS011;37915;53.254;6.598;2023-06-14T07:19:57;5.35;;;3.28;;
51883;SDS011;37915;53.254;6.598;2023-06-14T07:22:23;5.60;;;2.58;;
51883;SDS011;37915;53.254;6.598;2023-06-14T07:24:48;5.10;;;2.25;;
51883;SDS011;37915;53.254;6.598;2023-06-14T07:27:14;4.95;;;2.45;;
51883;SDS011;37915;53.254;6.598;2023-06-14T07:29:40;5.38;;;2.38;;
51883;SDS011;37915;53.254;6.598;2023-06-14T07:32:06;5.03;;;2.58;;
51883;SDS011;37915;53.254;6.598;2023-06-14T07:34:32;4.05;;;2.45;;
51883;SDS011;37915;53.254;6.598;2023-06-14T07:36:57;10.63;;;2.90;;
51883;SDS011;37915;53.254;6.598;2023-06-14T07:39:23;7.43;;;2.47;;
51883;SDS011;37915;53.254;6.598;2023-06-14T07:41:49;6.22;;;1.98;;
51883;SDS011;37915;53.254;6.598;2023-06-14T07:44:15;4.90;;;2.20;;
51883;SDS011;37915;53.254;6.598;2023-06-14T07:46:41;6.43;;;2.58;;
51883;SDS011;37915;53.254;6.598;2023-06-14T07:49:06;4.25;;;2.08;;
51883;SDS011;37915;53.254;6.598;2023-06-14T07:51:32;3.85;;;1.90;;
51883;SDS011;37915;53.254;6.598;2023-06-14T07:53:59;4.78;;;2.35;;
51883;SDS011;37915;53.254;6.598;2023-06-14T07:56:26;4.18;;;2.28;;
51883;SDS011;37915;53.254;6.598;2023-06-14T07:58:51;3.90;;;2.00;;
51883;SDS011;37915;53.254;6.598;2023-06-14T08:01:17;5.35;;;2.67;;
51883;SDS011;37915;53.254;6.598;2023-06-14T08:03:45;5.53;;;2.20;;
51883;SDS011;37915;53.254;6.598;2023-06-14T08:06:10;5.00;;;2.25;;
51883;SDS011;37915;53.254;6.598;2023-06-14T08:08:36;4.57;;;1.95;;
51883;SDS011;37915;53.254;6.598;2023-06-14T08:11:02;4.95;;;2.67;;
51883;SDS011;37915;53.254;6.598;2023-06-14T08:13:28;5.57;;;2.30;;
51883;SDS011;37915;53.254;6.598;2023-06-14T08:15:54;4.25;;;2.15;;
51883;SDS011;37915;53.254;6.598;2023-06-14T08:18:22;7.03;;;2.60;;
51883;SDS011;37915;53.254;6.598;2023-06-14T08:20:48;6.28;;;2.40;;
51883;SDS011;37915;53.254;6.598;2023-06-14T08:23:13;6.60;;;2.25;;
51883;SDS011;37915;53.254;6.598;2023-06-14T08:25:39;4.80;;;2.22;;
51883;SDS011;37915;53.254;6.598;2023-06-14T08:28:05;5.25;;;1.95;;
51883;SDS011;37915;53.254;6.598;2023-06-14T08:30:31;7.30;;;2.03;;
51883;SDS011;37915;53.254;6.598;2023-06-14T08:32:57;3.88;;;2.30;;
51883;SDS011;37915;53.254;6.598;2023-06-14T08:35:23;5.32;;;1.95;;
51883;SDS011;37915;53.254;6.598;2023-06-14T08:37:49;4.35;;;1.88;;
51883;SDS011;37915;53.254;6.598;2023-06-14T08:40:21;4.40;;;2.35;;
51883;SDS011;37915;53.254;6.598;2023-06-14T08:42:50;6.25;;;2.50;;
51883;SDS011;37915;53.254;6.598;2023-06-14T08:45:18;5.43;;;2.15;;
51883;SDS011;37915;53.254;6.598;2023-06-14T08:47:45;3.83;;;2.28;;
51883;SDS011;37915;53.254;6.598;2023-06-14T08:50:18;4.60;;;1.77;;
51883;SDS011;37915;53.254;6.598;2023-06-14T08:52:46;4.60;;;2.03;;
51883;SDS011;37915;53.254;6.598;2023-06-14T08:55:18;4.23;;;2.00;;
51883;SDS011;37915;53.254;6.598;2023-06-14T08:57:45;4.90;;;1.90;;
51883;SDS011;37915;53.254;6.598;2023-06-14T09:00:14;5.38;;;2.08;;
51883;SDS011;37915;53.254;6.598;2023-06-14T09:02:40;9.57;;;2.70;;
51883;SDS011;37915;53.254;6.598;2023-06-14T09:05:09;5.63;;;2.08;;
51883;SDS011;37915;53.254;6.598;2023-06-14T09:07:43;6.40;;;2.30;;
51883;SDS011;37915;53.254;6.598;2023-06-14T09:10:10;4.28;;;2.00;;
51883;SDS011;37915;53.254;6.598;2023-06-14T09:12:37;4.78;;;2.10;;
51883;SDS011;37915;53.254;6.598;2023-06-14T09:15:04;4.50;;;2.15;;
51883;SDS011;37915;53.254;6.598;2023-06-14T09:17:38;6.50;;;2.10;;
51883;SDS011;37915;53.254;6.598;2023-06-14T09:20:04;4.53;;;1.90;;
51883;SDS011;37915;53.254;6.598;2023-06-14T09:22:32;4.15;;;1.85;;
51883;SDS011;37915;53.254;6.598;2023-06-14T09:24:58;4.82;;;1.95;;
51883;SDS011;37915;53.254;6.598;2023-06-14T09:27:28;4.82;;;1.95;;
51883;SDS011;37915;53.254;6.598;2023-06-14T09:29:54;6.65;;;1.95;;
51883;SDS011;37915;53.254;6.598;2023-06-14T09:32:20;6.80;;;1.85;;
51883;SDS011;37915;53.254;6.598;2023-06-14T09:34:47;4.07;;;1.80;;
51883;SDS011;37915;53.254;6.598;2023-06-14T09:37:13;5.82;;;2.22;;
51883;SDS011;37915;53.254;6.598;2023-06-14T09:39:51;6.15;;;2.28;;
51883;SDS011;37915;53.254;6.598;2023-06-14T09:42:17;5.68;;;2.10;;
51883;SDS011;37915;53.254;6.598;2023-06-14T09:44:48;4.40;;;2.30;;
51883;SDS011;37915;53.254;6.598;2023-06-14T09:47:18;4.32;;;1.90;;
51883;SDS011;37915;53.254;6.598;2023-06-14T09:49:44;6.15;;;2.28;;
51883;SDS011;37915;53.254;6.598;2023-06-14T09:52:10;4.10;;;2.00;;
51883;SDS011;37915;53.254;6.598;2023-06-14T09:54:40;3.97;;;2.10;;
51883;SDS011;37915;53.254;6.598;2023-06-14T09:57:20;4.65;;;2.03;;
51883;SDS011;37915;53.254;6.598;2023-06-14T09:59:47;5.07;;;1.95;;
51883;SDS011;37915;53.254;6.598;2023-06-14T10:02:28;6.68;;;2.05;;
51883;SDS011;37915;53.254;6.598;2023-06-14T10:05:04;6.88;;;2.15;;
51883;SDS011;37915;53.254;6.598;2023-06-14T10:07:40;4.35;;;2.10;;
51883;SDS011;37915;53.254;6.598;2023-06-14T10:10:25;5.15;;;1.67;;
51883;SDS011;37915;53.254;6.598;2023-06-14T10:12:51;6.35;;;1.75;;
51883;SDS011;37915;53.254;6.598;2023-06-14T10:15:23;6.28;;;2.00;;
51883;SDS011;37915;53.254;6.598;2023-06-14T10:18:20;4.65;;;2.33;;
51883;SDS011;37915;53.254;6.598;2023-06-14T10:23:29;6.65;;;2.13;;
51883;SDS011;37915;53.254;6.598;2023-06-14T10:25:58;7.32;;;1.88;;
51883;SDS011;37915;53.254;6.598;2023-06-14T10:28:25;3.88;;;1.75;;
51883;SDS011;37915;53.254;6.598;2023-06-14T10:31:12;4.47;;;1.77;;
51883;SDS011;37915;53.254;6.598;2023-06-14T10:33:48;4.03;;;1.77;;
51883;SDS011;37915;53.254;6.598;2023-06-14T10:41:50;6.85;;;2.20;;
51883;SDS011;37915;53.254;6.598;2023-06-14T10:46:47;5.40;;;2.25;;
51883;SDS011;37915;53.254;6.598;2023-06-14T10:49:19;4.70;;;2.03;;
51883;SDS011;37915;53.254;6.598;2023-06-14T10:51:51;6.20;;;1.90;;
51883;SDS011;37915;53.254;6.598;2023-06-14T10:54:21;4.53;;;2.03;;
51883;SDS011;37915;53.254;6.598;2023-06-14T10:59:14;4.25;;;2.03;;
51883;SDS011;37915;53.254;6.598;2023-06-14T11:04:17;5.18;;;1.80;;
51883;SDS011;37915;53.254;6.598;2023-06-14T11:09:29;4.55;;;1.80;;
51883;SDS011;37915;53.254;6.598;2023-06-14T11:12:15;5.07;;;2.00;;
51883;SDS011;37915;53.254;6.598;2023-06-14T11:14:42;4.10;;;1.80;;
51883;SDS011;37915;53.254;6.598;2023-06-14T11:17:12;5.75;;;1.90;;
51883;SDS011;37915;53.254;6.598;2023-06-14T11:19:38;3.35;;;1.88;;
51883;SDS011;37915;53.254;6.598;2023-06-14T11:22:04;3.88;;;1.60;;
51883;SDS011;37915;53.254;6.598;2023-06-14T11:24:32;3.25;;;1.67;;
51883;SDS011;37915;53.254;6.598;2023-06-14T11:26:58;4.25;;;1.88;;
51883;SDS011;37915;53.254;6.598;2023-06-14T11:29:23;3.38;;;1.90;;
51883;SDS011;37915;53.254;6.598;2023-06-14T11:31:50;4.65;;;1.50;;
51883;SDS011;37915;53.254;6.598;2023-06-14T11:34:15;3.80;;;1.52;;
51883;SDS011;37915;53.254;6.598;2023-06-14T11:36:42;9.15;;;1.77;;
51883;SDS011;37915;53.254;6.598;2023-06-14T11:39:08;4.85;;;1.98;;
51883;SDS011;37915;53.254;6.598;2023-06-14T11:41:37;6.32;;;1.92;;
51883;SDS011;37915;53.254;6.598;2023-06-14T11:44:05;6.82;;;2.05;;
51883;SDS011;37915;53.254;6.598;2023-06-14T11:46:31;5.88;;;1.70;;
51883;SDS011;37915;53.254;6.598;2023-06-14T11:48:57;3.22;;;1.38;;
51883;SDS011;37915;53.254;6.598;2023-06-14T11:51:23;5.57;;;1.83;;
51883;SDS011;37915;53.254;6.598;2023-06-14T11:53:49;3.78;;;1.50;;
51883;SDS011;37915;53.254;6.598;2023-06-14T11:56:14;4.45;;;1.50;;
51883;SDS011;37915;53.254;6.598;2023-06-14T11:58:42;3.55;;;1.40;;
51883;SDS011;37915;53.254;6.598;2023-06-14T12:01:08;11.73;;;1.60;;
51883;SDS011;37915;53.254;6.598;2023-06-14T12:03:34;5.55;;;1.83;;
51883;SDS011;37915;53.254;6.598;2023-06-14T12:06:04;2.40;;;1.20;;
51883;SDS011;37915;53.254;6.598;2023-06-14T12:08:38;4.90;;;1.50;;
51883;SDS011;37915;53.254;6.598;2023-06-14T12:11:05;5.57;;;1.60;;
51883;SDS011;37915;53.254;6.598;2023-06-14T12:13:41;5.15;;;1.40;;
51883;SDS011;37915;53.254;6.598;2023-06-14T12:16:11;4.25;;;1.70;;
51883;SDS011;37915;53.254;6.598;2023-06-14T12:18:38;7.70;;;1.58;;
51883;SDS011;37915;53.254;6.598;2023-06-14T12:21:06;5.50;;;1.48;;
51883;SDS011;37915;53.254;6.598;2023-06-14T12:23:45;3.85;;;1.58;;
51883;SDS011;37915;53.254;6.598;2023-06-14T12:26:12;5.03;;;1.67;;
51883;SDS011;37915;53.254;6.598;2023-06-14T12:28:42;3.38;;;1.33;;
51883;SDS011;37915;53.254;6.598;2023-06-14T12:31:12;4.30;;;1.60;;
51883;SDS011;37915;53.254;6.598;2023-06-14T12:33:40;5.07;;;1.65;;
51883;SDS011;37915;53.254;6.598;2023-06-14T12:36:06;2.88;;;1.15;;
51883;SDS011;37915;53.254;6.598;2023-06-14T12:38:33;5.30;;;1.40;;
51883;SDS011;37915;53.254;6.598;2023-06-14T12:40:59;3.20;;;1.50;;
51883;SDS011;37915;53.254;6.598;2023-06-14T12:43:25;3.90;;;1.67;;
51883;SDS011;37915;53.254;6.598;2023-06-14T12:45:51;3.08;;;1.50;;
51883;SDS011;37915;53.254;6.598;2023-06-14T12:48:17;2.90;;;1.38;;
51883;SDS011;37915;53.254;6.598;2023-06-14T12:50:43;3.65;;;1.30;;
51883;SDS011;37915;53.254;6.598;2023-06-14T12:53:08;2.67;;;1.23;;
51883;SDS011;37915;53.254;6.598;2023-06-14T12:55:34;3.88;;;1.38;;
51883;SDS011;37915;53.254;6.598;2023-06-14T12:58:00;2.92;;;1.30;;
51883;SDS011;37915;53.254;6.598;2023-06-14T13:00:26;5.25;;;1.67;;
51883;SDS011;37915;53.254;6.598;2023-06-14T13:02:51;2.85;;;1.40;;
51883;SDS011;37915;53.254;6.598;2023-06-14T13:05:18;3.13;;;1.40;;
51883;SDS011;37915;53.254;6.598;2023-06-14T13:07:44;5.63;;;1.48;;
51883;SDS011;37915;53.254;6.598;2023-06-14T13:10:10;3.70;;;1.52;;
51883;SDS011;37915;53.254;6.598;2023-06-14T13:12:35;4.25;;;1.42;;
51883;SDS011;37915;53.254;6.598;2023-06-14T13:15:01;3.67;;;1.33;;
51883;SDS011;37915;53.254;6.598;2023-06-14T13:17:27;4.47;;;1.40;;
51883;SDS011;37915;53.254;6.598;2023-06-14T13:19:53;4.90;;;1.58;;
51883;SDS011;37915;53.254;6.598;2023-06-14T13:22:19;4.55;;;1.48;;
51883;SDS011;37915;53.254;6.598;2023-06-14T13:24:45;3.58;;;1.80;;
51883;SDS011;37915;53.254;6.598;2023-06-14T13:27:10;3.17;;;1.48;;
51883;SDS011;37915;53.254;6.598;2023-06-14T13:29:38;4.38;;;1.63;;
51883;SDS011;37915;53.254;6.598;2023-06-14T13:32:04;5.03;;;1.50;;
51883;SDS011;37915;53.254;6.598;2023-06-14T13:34:30;3.22;;;1.33;;
51883;SDS011;37915;53.254;6.598;2023-06-14T13:36:55;5.15;;;1.60;;
51883;SDS011;37915;53.254;6.598;2023-06-14T13:39:21;3.95;;;1.73;;
51883;SDS011;37915;53.254;6.598;2023-06-14T13:41:47;3.83;;;1.33;;
51883;SDS011;37915;53.254;6.598;2023-06-14T13:44:13;3.78;;;1.55;;
51883;SDS011;37915;53.254;6.598;2023-06-14T13:46:40;3.75;;;1.55;;
51883;SDS011;37915;53.254;6.598;2023-06-14T13:49:07;6.32;;;1.60;;
51883;SDS011;37915;53.254;6.598;2023-06-14T13:51:33;4.60;;;1.67;;
51883;SDS011;37915;53.254;6.598;2023-06-14T13:54:00;4.90;;;1.60;;
51883;SDS011;37915;53.254;6.598;2023-06-14T13:56:26;3.17;;;1.63;;
51883;SDS011;37915;53.254;6.598;2023-06-14T13:58:52;4.47;;;1.73;;
51883;SDS011;37915;53.254;6.598;2023-06-14T14:01:18;3.00;;;1.30;;
51883;SDS011;37915;53.254;6.598;2023-06-14T14:03:48;2.58;;;1.45;;
51883;SDS011;37915;53.254;6.598;2023-06-14T14:06:15;5.75;;;2.00;;
51883;SDS011;37915;53.254;6.598;2023-06-14T14:08:41;5.07;;;1.55;;
51883;SDS011;37915;53.254;6.598;2023-06-14T14:11:07;3.53;;;1.40;;
51883;SDS011;37915;53.254;6.598;2023-06-14T14:13:34;6.20;;;1.83;;
51883;SDS011;37915;53.254;6.598;2023-06-14T14:16:03;4.45;;;1.88;;
51883;SDS011;37915;53.254;6.598;2023-06-14T14:18:29;4.22;;;1.52;;
51883;SDS011;37915;53.254;6.598;2023-06-14T14:20:55;4.78;;;1.40;;
51883;SDS011;37915;53.254;6.598;2023-06-14T14:23:21;3.28;;;1.33;;
51883;SDS011;37915;53.254;6.598;2023-06-14T14:25:47;4.25;;;1.55;;
51883;SDS011;37915;53.254;6.598;2023-06-14T14:28:13;3.42;;;1.52;;
51883;SDS011;37915;53.254;6.598;2023-06-14T14:30:41;6.07;;;1.60;;
51883;SDS011;37915;53.254;6.598;2023-06-14T14:33:07;4.63;;;1.33;;
51883;SDS011;37915;53.254;6.598;2023-06-14T14:35:33;5.05;;;1.65;;
51883;SDS011;37915;53.254;6.598;2023-06-14T14:37:59;3.85;;;1.70;;
51883;SDS011;37915;53.254;6.598;2023-06-14T14:40:25;3.30;;;1.70;;
51883;SDS011;37915;53.254;6.598;2023-06-14T14:42:51;5.32;;;1.75;;
51883;SDS011;37915;53.254;6.598;2023-06-14T14:45:17;5.00;;;1.58;;
51883;SDS011;37915;53.254;6.598;2023-06-14T14:47:42;4.90;;;1.58;;
51883;SDS011;37915;53.254;6.598;2023-06-14T14:50:08;3.00;;;1.40;;
51883;SDS011;37915;53.254;6.598;2023-06-14T14:52:34;6.20;;;1.77;;
51883;SDS011;37915;53.254;6.598;2023-06-14T14:55:00;3.50;;;1.80;;
51883;SDS011;37915;53.254;6.598;2023-06-14T14:57:26;3.40;;;1.85;;
51883;SDS011;37915;53.254;6.598;2023-06-14T14:59:52;3.78;;;1.42;;
51883;SDS011;37915;53.254;6.598;2023-06-14T15:02:18;5.63;;;1.75;;
51883;SDS011;37915;53.254;6.598;2023-06-14T15:04:44;3.35;;;1.73;;
51883;SDS011;37915;53.254;6.598;2023-06-14T15:07:11;6.53;;;1.75;;
51883;SDS011;37915;53.254;6.598;2023-06-14T15:09:36;5.93;;;1.83;;